Stephen M. White — WCU6542 — position and weather

sailwx.info

Track history (hours):
 
Tides and Currents Weather Stations Pressure Air Temp Water Temp Dewpoint Dewpoint Depression Visibility Wind Speed Wind Dir Waves Ship Positions

Stephen M. White

Owner: LOS ANGELES, CITY OF, SAN PEDRO, CA. More information available from US FCC via Universal Licensing System and Coast Guard Vessel Documentation Center.

Last reported at 2017-Jan-18 09:17 UTC. Time now 2017-Jan-19 02:14 UTC.
Position N 33°39' W 118°13'.

Length 13 m.

Type: Other ship. MMSI: 367049470.

Date/timePositionNaut miles runAvg speedWind from/ knotsBaromVisibWave heightAir tempDewpointWater temp
2017-Jan-18 09:17N 33°39' W 118°13'5 1.1
2017-Jan-18 05:06N 33°43' W 118°16'0 0.0
2017-Jan-18 04:33N 33°43' W 118°16'0 0.0
2017-Jan-18 03:28N 33°43' W 118°16'0 0.0
2017-Jan-18 00:33N 33°43' W 118°16'0 0.0
2017-Jan-17 23:33N 33°43' W 118°16'0 0.0
2017-Jan-17 22:33N 33°43' W 118°16'0 0.0
2017-Jan-17 21:33N 33°43' W 118°16'0 0.0
2017-Jan-17 20:33N 33°43' W 118°16'0 0.0
2017-Jan-17 19:33N 33°43' W 118°16'0 0.0
2017-Jan-17 18:33N 33°43' W 118°16'0 0.0
2017-Jan-17 17:14N 33°43' W 118°16'0 0.0
2017-Jan-17 16:33N 33°43' W 118°16'0 0.0
2017-Jan-17 15:33N 33°43' W 118°16'0 0.0
2017-Jan-17 14:33N 33°43' W 118°16'1 0.9
2017-Jan-17 13:30N 33°43' W 118°15'1 0.9
2017-Jan-17 12:33N 33°42' W 118°15'1 0.6
2017-Jan-17 11:30N 33°43' W 118°15'0 0.3
2017-Jan-17 10:33N 33°43' W 118°15'1 0.9
2017-Jan-17 09:33N 33°43' W 118°16'4 0.1
2017-Jan-15 08:33N 33°40' W 118°14'4 2.8
2017-Jan-15 07:14N 33°43' W 118°16'0 0.0
2017-Jan-15 06:27N 33°43' W 118°16'0 0.0
2017-Jan-15 05:33N 33°43' W 118°16'0 0.0
2017-Jan-15 03:09N 33°43' W 118°16'0 0.0
2017-Jan-15 02:33N 33°43' W 118°16'2 1.7
2017-Jan-15 01:33N 33°42' W 118°15'2 1.7
2017-Jan-15 00:34N 33°43' W 118°16'0 0.0
2017-Jan-14 23:32N 33°43' W 118°16'0 0.0
2017-Jan-14 22:33N 33°43' W 118°16'0 0.0
2017-Jan-14 21:33N 33°43' W 118°16'0 0.0
2017-Jan-14 20:33N 33°43' W 118°16'0 0.0
2017-Jan-14 19:33N 33°43' W 118°16'0 0.0
2017-Jan-14 18:29N 33°43' W 118°16'2 0.5
2017-Jan-14 14:06N 33°42' W 118°15'2 1.3
2017-Jan-14 12:33N 33°40' W 118°14'  
2017-Jan-09 09:20N 33°43' W 118°16'0 0.0
2017-Jan-09 08:33N 33°43' W 118°16'0 0.0
2017-Jan-09 07:33N 33°43' W 118°16'0 0.0
2017-Jan-09 06:34N 33°43' W 118°16'0 0.0
2017-Jan-09 05:34N 33°43' W 118°16'0 0.0
2017-Jan-09 04:33N 33°43' W 118°16'0 0.0
2017-Jan-09 03:34N 33°43' W 118°16'2 1.2
2017-Jan-09 02:03N 33°42' W 118°15'2 0.3
2017-Jan-08 19:11N 33°43' W 118°16'0 0.0
2017-Jan-08 18:33N 33°43' W 118°16'0 0.0
2017-Jan-08 17:33N 33°43' W 118°16'0 0.0
2017-Jan-08 12:15N 33°43' W 118°16'  
Track history (hours):
 
Tides and Currents Weather Stations Pressure Air Temp Water Temp Dewpoint Dewpoint Depression Visibility Wind Speed Wind Dir Waves Ship Positions

Stephen M. White

Owner: LOS ANGELES, CITY OF, SAN PEDRO, CA. More information available from US FCC via Universal Licensing System and Coast Guard Vessel Documentation Center.

Last reported at 2017-Jan-18 09:17 UTC. Time now 2017-Jan-19 02:14 UTC.
Position N 33°39' W 118°13'.

Length 13 m.

Type: Other ship. MMSI: 367049470.

Date/timePositionNaut miles runAvg speedWind from/ knotsBaromVisibWave heightAir tempDewpointWater temp
2017-Jan-18 09:17N 33°39' W 118°13'5 1.1
2017-Jan-18 05:06N 33°43' W 118°16'0 0.0
2017-Jan-18 04:33N 33°43' W 118°16'0 0.0
2017-Jan-18 03:28N 33°43' W 118°16'0 0.0
2017-Jan-18 00:33N 33°43' W 118°16'0 0.0
2017-Jan-17 23:33N 33°43' W 118°16'0 0.0
2017-Jan-17 22:33N 33°43' W 118°16'0 0.0
2017-Jan-17 21:33N 33°43' W 118°16'0 0.0
2017-Jan-17 20:33N 33°43' W 118°16'0 0.0
2017-Jan-17 19:33N 33°43' W 118°16'0 0.0
2017-Jan-17 18:33N 33°43' W 118°16'0 0.0
2017-Jan-17 17:14N 33°43' W 118°16'0 0.0
2017-Jan-17 16:33N 33°43' W 118°16'0 0.0
2017-Jan-17 15:33N 33°43' W 118°16'0 0.0
2017-Jan-17 14:33N 33°43' W 118°16'1 0.9
2017-Jan-17 13:30N 33°43' W 118°15'1 0.9
2017-Jan-17 12:33N 33°42' W 118°15'1 0.6
2017-Jan-17 11:30N 33°43' W 118°15'0 0.3
2017-Jan-17 10:33N 33°43' W 118°15'1 0.9
2017-Jan-17 09:33N 33°43' W 118°16'4 0.1
2017-Jan-15 08:33N 33°40' W 118°14'4 2.8
2017-Jan-15 07:14N 33°43' W 118°16'0 0.0
2017-Jan-15 06:27N 33°43' W 118°16'0 0.0
2017-Jan-15 05:33N 33°43' W 118°16'0 0.0
2017-Jan-15 03:09N 33°43' W 118°16'0 0.0
2017-Jan-15 02:33N 33°43' W 118°16'2 1.7
2017-Jan-15 01:33N 33°42' W 118°15'2 1.7
2017-Jan-15 00:34N 33°43' W 118°16'0 0.0
2017-Jan-14 23:32N 33°43' W 118°16'0 0.0
2017-Jan-14 22:33N 33°43' W 118°16'0 0.0
2017-Jan-14 21:33N 33°43' W 118°16'0 0.0
2017-Jan-14 20:33N 33°43' W 118°16'0 0.0
2017-Jan-14 19:33N 33°43' W 118°16'0 0.0
2017-Jan-14 18:29N 33°43' W 118°16'2 0.5
2017-Jan-14 14:06N 33°42' W 118°15'2 1.3
2017-Jan-14 12:33N 33°40' W 118°14'  
2017-Jan-09 09:20N 33°43' W 118°16'0 0.0
2017-Jan-09 08:33N 33°43' W 118°16'0 0.0
2017-Jan-09 07:33N 33°43' W 118°16'0 0.0
2017-Jan-09 06:34N 33°43' W 118°16'0 0.0
2017-Jan-09 05:34N 33°43' W 118°16'0 0.0
2017-Jan-09 04:33N 33°43' W 118°16'0 0.0
2017-Jan-09 03:34N 33°43' W 118°16'2 1.2
2017-Jan-09 02:03N 33°42' W 118°15'2 0.3
2017-Jan-08 19:11N 33°43' W 118°16'0 0.0
2017-Jan-08 18:33N 33°43' W 118°16'0 0.0
2017-Jan-08 17:33N 33°43' W 118°16'0 0.0
2017-Jan-08 12:15N 33°43' W 118°16'  

Dump ship's entire track history